createdAt,value
2023-01-28T00:01:40.840Z,20.73
2023-01-28T00:04:08.472Z,20.50
2023-01-28T00:06:36.035Z,20.63
2023-01-28T00:09:03.847Z,20.53
2023-01-28T00:11:31.114Z,19.53
2023-01-28T00:13:58.679Z,18.80
2023-01-28T00:16:30.459Z,18.63
2023-01-28T00:18:58.139Z,19.83
2023-01-28T00:21:25.454Z,20.47
2023-01-28T00:23:56.318Z,21.10
2023-01-28T00:26:25.412Z,18.63
2023-01-28T00:28:53.028Z,19.17
2023-01-28T00:31:27.417Z,19.73
2023-01-28T00:33:57.375Z,17.93
2023-01-28T00:36:27.304Z,17.83
2023-01-28T00:38:58.655Z,16.27
2023-01-28T00:41:28.874Z,18.47
2023-01-28T00:43:56.742Z,15.93
2023-01-28T00:46:26.609Z,15.97
2023-01-28T00:48:54.525Z,16.83
2023-01-28T00:51:22.211Z,16.37
2023-01-28T00:53:49.816Z,18.67
2023-01-28T00:56:19.708Z,17.30
2023-01-28T00:58:48.093Z,16.90
2023-01-28T01:01:24.119Z,16.10
2023-01-28T01:03:57.812Z,15.53
2023-01-28T01:06:25.964Z,16.40
2023-01-28T01:08:53.492Z,16.33
2023-01-28T01:11:20.804Z,17.03
2023-01-28T01:13:57.647Z,16.57
2023-01-28T01:16:29.511Z,16.07
2023-01-28T01:18:57.472Z,15.80
2023-01-28T01:21:27.970Z,14.80
2023-01-28T01:23:56.089Z,14.63
2023-01-28T01:26:27.534Z,15.30
2023-01-28T01:28:55.135Z,15.47
2023-01-28T01:31:23.457Z,14.90
2023-01-28T01:33:53.365Z,15.30
2023-01-28T01:36:22.182Z,14.93
2023-01-28T01:38:55.275Z,15.13
2023-01-28T01:41:32.890Z,15.00
2023-01-28T01:44:04.354Z,15.13
2023-01-28T01:46:52.783Z,15.53
2023-01-28T01:49:28.993Z,14.83
2023-01-28T01:52:07.909Z,13.63
2023-01-28T01:54:41.076Z,12.73
2023-01-28T01:57:14.800Z,13.50
2023-01-28T01:59:44.083Z,13.73
2023-01-28T02:02:13.223Z,14.13
2023-01-28T02:04:44.857Z,12.83
2023-01-28T02:07:17.030Z,13.87
2023-01-28T02:09:44.670Z,13.90
2023-01-28T02:12:27.122Z,13.77
2023-01-28T02:15:02.996Z,15.00
2023-01-28T02:17:31.622Z,14.57
2023-01-28T02:20:11.298Z,15.70
2023-01-28T02:23:15.938Z,15.97
2023-01-28T02:26:19.779Z,15.17
2023-01-28T02:29:03.017Z,15.37
2023-01-28T02:31:43.709Z,16.17
2023-01-28T02:34:57.010Z,14.33
2023-01-28T02:37:46.132Z,13.50
2023-01-28T02:41:02.584Z,13.87
2023-01-28T02:43:45.332Z,13.17
2023-01-28T02:46:46.103Z,13.73
2023-01-28T02:49:28.368Z,12.27
2023-01-28T02:52:05.128Z,12.33
2023-01-28T02:55:10.786Z,12.83
2023-01-28T02:58:01.003Z,12.20
2023-01-28T03:00:51.620Z,13.57
2023-01-28T03:03:55.855Z,13.87
2023-01-28T03:06:44.672Z,12.17
2023-01-28T03:09:23.210Z,13.30
2023-01-28T03:12:24.042Z,14.43
2023-01-28T03:15:15.690Z,14.00
2023-01-28T03:18:16.284Z,13.23
2023-01-28T03:21:36.705Z,14.43
2023-01-28T03:24:31.539Z,13.57
2023-01-28T03:27:25.510Z,14.97
2023-01-28T03:30:16.574Z,14.50
2023-01-28T03:33:03.818Z,14.00
2023-01-28T03:35:54.064Z,15.77
2023-01-28T03:38:23.161Z,17.03
2023-01-28T03:41:05.397Z,16.10
2023-01-28T03:43:33.773Z,16.87
2023-01-28T03:46:01.697Z,16.23
2023-01-28T03:48:29.683Z,16.53
2023-01-28T03:50:57.373Z,15.73
2023-01-28T03:53:25.217Z,14.40
2023-01-28T03:55:54.559Z,13.97
2023-01-28T03:58:22.886Z,14.77
2023-01-28T04:00:51.205Z,14.87
2023-01-28T04:03:21.607Z,15.50
2023-01-28T04:06:05.879Z,15.83
2023-01-28T04:08:33.726Z,15.00
2023-01-28T04:11:15.863Z,15.23
2023-01-28T04:13:44.272Z,15.37
2023-01-28T04:16:15.313Z,14.50
2023-01-28T04:18:44.293Z,13.80
2023-01-28T04:21:12.807Z,12.97
2023-01-28T04:23:40.068Z,12.70
2023-01-28T04:26:08.483Z,13.23
2023-01-28T04:28:35.860Z,14.13
2023-01-28T04:31:03.557Z,13.97
2023-01-28T04:33:30.997Z,13.17
2023-01-28T04:35:58.599Z,13.63
2023-01-28T04:38:25.830Z,12.60
2023-01-28T04:40:54.809Z,13.10
2023-01-28T04:43:22.224Z,12.57
2023-01-28T04:45:50.224Z,12.20
2023-01-28T04:48:17.763Z,13.27
2023-01-28T04:50:46.041Z,12.97
2023-01-28T04:53:13.371Z,13.23
2023-01-28T04:55:41.098Z,13.57
2023-01-28T04:58:08.686Z,12.40
2023-01-28T05:00:36.320Z,13.10
2023-01-28T05:03:03.835Z,13.27
2023-01-28T05:05:31.622Z,13.53
2023-01-28T05:07:59.525Z,16.87
2023-01-28T05:10:28.493Z,13.77
2023-01-28T05:12:55.893Z,12.00
2023-01-28T05:15:23.571Z,12.60
2023-01-28T05:17:50.853Z,13.23
2023-01-28T05:20:18.447Z,17.00
2023-01-28T05:22:45.751Z,15.23
2023-01-28T05:25:14.723Z,12.53
2023-01-28T05:27:42.119Z,12.47
2023-01-28T05:30:10.680Z,11.90
2023-01-28T05:32:37.943Z,11.73
2023-01-28T05:35:06.275Z,13.50
2023-01-28T05:37:33.563Z,13.23
2023-01-28T05:40:01.083Z,12.20
2023-01-28T05:42:28.989Z,13.53
2023-01-28T05:44:56.502Z,12.53
2023-01-28T05:47:23.772Z,13.07
2023-01-28T05:49:51.292Z,14.33
2023-01-28T05:52:18.593Z,14.57
2023-01-28T05:54:46.104Z,14.80
2023-01-28T05:57:13.428Z,15.23
2023-01-28T05:59:40.934Z,16.00
2023-01-28T06:02:08.245Z,15.97
2023-01-28T06:04:35.843Z,16.83
2023-01-28T06:07:03.113Z,17.97
2023-01-28T06:09:30.678Z,17.33
2023-01-28T06:11:57.939Z,18.47
2023-01-28T06:14:25.432Z,15.77
2023-01-28T06:16:52.753Z,15.07
2023-01-28T06:19:20.318Z,15.07
2023-01-28T06:21:47.591Z,16.83
2023-01-28T06:24:15.303Z,14.63
2023-01-28T06:26:42.631Z,14.90
2023-01-28T06:29:10.620Z,14.83
2023-01-28T06:31:37.944Z,14.37
2023-01-28T06:34:05.582Z,14.60
2023-01-28T06:36:33.256Z,14.37
2023-01-28T06:39:00.857Z,14.50
2023-01-28T06:41:28.119Z,15.37
2023-01-28T06:43:55.661Z,14.77
2023-01-28T06:46:23.026Z,14.03
2023-01-28T06:48:50.779Z,15.07
2023-01-28T06:51:18.077Z,14.77
2023-01-28T06:53:46.180Z,15.17
2023-01-28T06:56:13.484Z,13.67
2023-01-28T06:58:41.021Z,14.10
2023-01-28T07:01:14.605Z,14.40
2023-01-28T07:03:42.168Z,13.73
2023-01-28T07:06:09.658Z,14.37
2023-01-28T07:08:38.121Z,14.27
2023-01-28T07:11:05.923Z,15.43
2023-01-28T07:13:33.928Z,14.23
2023-01-28T07:16:01.880Z,17.37
2023-01-28T07:18:29.749Z,14.57
2023-01-28T07:20:57.120Z,18.37
2023-01-28T07:23:24.851Z,18.47
2023-01-28T07:25:52.176Z,15.97
2023-01-28T07:28:21.622Z,15.67
2023-01-28T07:30:53.489Z,20.47
2023-01-28T07:33:21.527Z,23.80
2023-01-28T07:35:49.200Z,23.33
2023-01-28T07:38:16.875Z,20.03
2023-01-28T07:40:45.366Z,18.00
2023-01-28T07:43:13.038Z,18.53
2023-01-28T07:45:40.737Z,17.27
2023-01-28T07:48:12.134Z,17.60
2023-01-28T07:50:40.511Z,14.73
2023-01-28T07:53:11.753Z,14.33
2023-01-28T07:55:39.790Z,15.10
2023-01-28T07:58:11.296Z,16.20
2023-01-28T08:00:40.020Z,15.00
2023-01-28T08:03:15.965Z,14.97
2023-01-28T08:05:48.593Z,16.17
2023-01-28T08:08:17.327Z,15.30
2023-01-28T08:10:45.816Z,15.67
2023-01-28T08:13:15.534Z,15.37
2023-01-28T08:15:43.666Z,15.47
2023-01-28T08:18:14.335Z,15.73
2023-01-28T08:20:47.458Z,22.83
2023-01-28T08:23:19.256Z,24.60
2023-01-28T08:25:48.380Z,25.00
2023-01-28T08:28:17.757Z,21.57
2023-01-28T08:30:45.643Z,18.10
2023-01-28T08:33:18.452Z,28.27
2023-01-28T08:35:46.737Z,22.20
2023-01-28T08:38:16.555Z,20.03
2023-01-28T08:40:44.106Z,15.83
2023-01-28T08:43:11.815Z,14.90
2023-01-28T08:45:40.676Z,14.90
2023-01-28T08:48:14.664Z,16.33
2023-01-28T08:50:42.477Z,18.60
2023-01-28T08:53:17.954Z,16.30
2023-01-28T08:55:47.258Z,14.43
2023-01-28T08:58:18.296Z,14.73
2023-01-28T09:00:46.939Z,13.13
2023-01-28T09:03:15.322Z,14.90
2023-01-28T09:05:42.811Z,14.83
2023-01-28T09:08:16.072Z,17.60
2023-01-28T09:10:44.201Z,15.63
2023-01-28T09:13:16.218Z,16.20
2023-01-28T09:15:44.287Z,14.67
2023-01-28T09:18:12.043Z,14.53
2023-01-28T09:20:39.745Z,13.63
2023-01-28T09:23:07.988Z,14.63
2023-01-28T09:25:38.699Z,13.32
2023-01-28T09:28:06.762Z,14.83
2023-01-28T09:30:37.013Z,14.40
2023-01-28T09:33:05.692Z,13.60
2023-01-28T09:35:34.232Z,15.87
2023-01-28T09:38:01.970Z,15.67
2023-01-28T09:40:41.075Z,15.63
2023-01-28T09:44:10.224Z,16.23
2023-01-28T09:46:38.802Z,17.00
2023-01-28T09:49:47.712Z,15.77
2023-01-28T09:52:23.252Z,13.57
2023-01-28T09:55:07.940Z,13.80
2023-01-28T09:57:47.663Z,15.07
2023-01-28T10:00:20.477Z,13.57
2023-01-28T10:03:26.106Z,15.40
2023-01-28T10:06:42.089Z,15.77
2023-01-28T10:09:42.921Z,16.98
2023-01-28T10:12:34.578Z,15.87
2023-01-28T10:15:22.193Z,14.30
2023-01-28T10:18:07.230Z,14.33
2023-01-28T10:21:05.417Z,15.90
2023-01-28T10:23:38.717Z,16.03
2023-01-28T10:26:20.731Z,16.20
2023-01-28T10:28:56.966Z,16.63
2023-01-28T10:31:35.990Z,14.85
2023-01-28T10:34:04.649Z,15.80
2023-01-28T10:36:32.263Z,14.88
2023-01-28T10:39:00.017Z,14.90
2023-01-28T10:41:27.429Z,14.90
2023-01-28T10:43:57.419Z,14.23
2023-01-28T10:46:32.567Z,14.50
2023-01-28T10:49:19.007Z,13.87
2023-01-28T10:51:46.403Z,14.33
2023-01-28T10:54:26.652Z,15.32
2023-01-28T10:57:00.848Z,17.75
2023-01-28T10:59:37.057Z,16.10
2023-01-28T11:02:29.087Z,14.35
2023-01-28T11:05:18.754Z,12.43
2023-01-28T11:07:46.079Z,12.20
2023-01-28T11:10:40.611Z,12.82
2023-01-28T11:13:19.146Z,13.18
2023-01-28T11:15:49.401Z,16.25
2023-01-28T11:18:28.586Z,15.27
2023-01-28T11:21:02.530Z,12.93
2023-01-28T11:23:49.391Z,12.93
2023-01-28T11:26:27.029Z,12.27
2023-01-28T11:28:55.608Z,12.27
2023-01-28T11:31:24.810Z,12.70
2023-01-28T11:34:05.183Z,13.45
2023-01-28T11:36:35.414Z,12.85
2023-01-28T11:39:22.290Z,12.25
2023-01-28T11:41:50.163Z,12.40
2023-01-28T11:44:25.535Z,13.93
2023-01-28T11:47:25.822Z,17.00
2023-01-28T11:50:18.775Z,13.50
2023-01-28T11:53:11.206Z,13.65
2023-01-28T11:56:20.352Z,15.27
2023-01-28T11:59:11.525Z,15.32
2023-01-28T12:01:47.228Z,18.80
2023-01-28T12:04:45.401Z,29.05
2023-01-28T12:07:32.559Z,20.37
2023-01-28T12:10:38.318Z,20.17
2023-01-28T12:13:24.167Z,19.13
2023-01-28T12:16:10.041Z,17.73
2023-01-28T12:19:39.298Z,17.10
2023-01-28T12:22:51.837Z,16.57
2023-01-28T12:25:26.990Z,16.75
2023-01-28T12:28:30.860Z,17.43
2023-01-28T12:31:22.606Z,16.47
2023-01-28T12:34:09.949Z,17.00
2023-01-28T12:37:25.695Z,19.23
2023-01-28T12:40:26.451Z,22.42
2023-01-28T12:43:12.178Z,24.77
2023-01-28T12:45:48.411Z,23.05
2023-01-28T12:48:30.034Z,17.10
2023-01-28T12:51:07.561Z,15.35
2023-01-28T12:53:51.416Z,17.50
2023-01-28T12:56:38.035Z,17.00
2023-01-28T12:59:20.336Z,18.07
2023-01-28T13:02:25.488Z,21.87
2023-01-28T13:05:31.522Z,19.67
2023-01-28T13:08:11.173Z,18.02
2023-01-28T13:10:45.399Z,18.50
2023-01-28T13:13:36.390Z,15.83
2023-01-28T13:16:07.912Z,16.93
2023-01-28T13:18:45.663Z,17.47
2023-01-28T13:21:47.378Z,23.03
2023-01-28T13:24:16.574Z,17.10
2023-01-28T13:26:57.460Z,16.90
2023-01-28T13:29:24.924Z,17.70
2023-01-28T13:31:56.256Z,17.90
2023-01-28T13:34:38.337Z,18.93
2023-01-28T13:37:29.920Z,17.80
2023-01-28T13:40:14.035Z,19.27
2023-01-28T13:42:42.397Z,19.83
2023-01-28T13:45:16.211Z,21.13
2023-01-28T13:48:05.689Z,20.80
2023-01-28T13:50:42.640Z,20.93
2023-01-28T13:53:40.270Z,23.83
2023-01-28T13:56:26.741Z,22.90
2023-01-28T13:59:12.410Z,22.43
2023-01-28T14:02:20.473Z,24.13
2023-01-28T14:05:22.910Z,26.50
2023-01-28T14:08:22.838Z,24.90
2023-01-28T14:11:05.837Z,23.33
2023-01-28T14:13:39.141Z,23.67
2023-01-28T14:16:24.380Z,21.88
2023-01-28T14:18:52.653Z,23.63
2023-01-28T14:21:22.530Z,22.73
2023-01-28T14:23:58.681Z,24.00
2023-01-28T14:27:04.513Z,23.77
2023-01-28T14:29:53.385Z,22.57
2023-01-28T14:32:29.718Z,23.73
2023-01-28T14:35:09.184Z,23.73
2023-01-28T14:37:36.836Z,25.47
2023-01-28T14:40:15.269Z,27.10
2023-01-28T14:42:47.957Z,25.03
2023-01-28T14:45:49.272Z,21.73
2023-01-28T14:48:32.329Z,20.87
2023-01-28T14:51:39.509Z,20.80
2023-01-28T14:54:40.557Z,23.63
2023-01-28T14:57:17.489Z,23.03
2023-01-28T14:59:52.812Z,24.77
2023-01-28T15:02:25.097Z,22.93
2023-01-28T15:04:55.092Z,21.67
2023-01-28T15:07:27.819Z,22.00
2023-01-28T15:10:11.642Z,21.40
2023-01-28T15:12:43.287Z,22.93
2023-01-28T15:15:18.169Z,24.70
2023-01-28T15:17:48.470Z,24.17
2023-01-28T15:20:24.865Z,23.77
2023-01-28T15:22:54.125Z,25.83
2023-01-28T15:25:24.363Z,26.80
2023-01-28T15:27:54.989Z,25.23
2023-01-28T15:30:27.230Z,25.60
2023-01-28T15:33:17.278Z,26.97
2023-01-28T15:35:56.278Z,27.23
2023-01-28T15:38:28.547Z,25.50
2023-01-28T15:41:02.986Z,25.47
2023-01-28T15:43:38.363Z,23.97
2023-01-28T15:46:15.701Z,27.80
2023-01-28T15:48:49.935Z,28.80
2023-01-28T15:51:27.536Z,28.20
2023-01-28T15:54:09.374Z,28.63
2023-01-28T15:56:37.143Z,28.33
2023-01-28T15:59:16.813Z,36.07
2023-01-28T16:01:44.904Z,33.80
2023-01-28T16:04:24.699Z,36.30
2023-01-28T16:06:54.127Z,34.73
2023-01-28T16:09:42.962Z,35.83
2023-01-28T16:12:14.283Z,35.07
2023-01-28T16:15:08.656Z,31.20
2023-01-28T16:17:46.718Z,32.20
2023-01-28T16:20:27.308Z,33.07
2023-01-28T16:23:02.569Z,35.27
2023-01-28T16:25:39.421Z,37.07
2023-01-28T16:28:20.361Z,36.63
2023-01-28T16:30:48.081Z,40.60
2023-01-28T16:33:21.046Z,33.13
2023-01-28T16:36:05.398Z,44.17
2023-01-28T16:38:34.907Z,43.30
2023-01-28T16:41:02.849Z,41.30
2023-01-28T16:43:30.613Z,40.33
2023-01-28T16:45:58.331Z,37.67
2023-01-28T16:48:25.725Z,38.70
2023-01-28T16:50:53.331Z,40.13
2023-01-28T16:53:33.656Z,38.70
2023-01-28T16:56:02.515Z,38.27
2023-01-28T16:58:30.769Z,35.33
2023-01-28T17:00:58.628Z,37.00
2023-01-28T17:03:26.149Z,35.22
2023-01-28T17:05:53.996Z,35.10
2023-01-28T17:08:21.375Z,32.93
2023-01-28T17:10:56.827Z,30.70
2023-01-28T17:13:24.314Z,31.63
2023-01-28T17:15:53.127Z,29.07
2023-01-28T17:18:20.659Z,28.70
2023-01-28T17:20:48.381Z,30.33
2023-01-28T17:23:17.274Z,32.67
2023-01-28T17:25:44.921Z,33.90
2023-01-28T17:28:13.067Z,33.22
2023-01-28T17:30:42.204Z,33.57
2023-01-28T17:33:10.288Z,32.47
2023-01-28T17:35:37.992Z,34.23
2023-01-28T17:38:06.176Z,35.43
2023-01-28T17:40:33.882Z,34.37
2023-01-28T17:43:01.389Z,35.33
2023-01-28T17:45:32.152Z,44.90
2023-01-28T17:47:59.775Z,37.10
2023-01-28T17:50:27.509Z,35.20
2023-01-28T17:52:57.209Z,33.80
2023-01-28T17:55:26.057Z,28.57
2023-01-28T17:57:53.471Z,32.23
2023-01-28T18:00:22.513Z,31.20
2023-01-28T18:02:51.337Z,32.27
2023-01-28T18:05:20.528Z,34.45
2023-01-28T18:07:50.341Z,31.33
2023-01-28T18:10:19.077Z,32.83
2023-01-28T18:12:46.640Z,34.87
2023-01-28T18:15:14.899Z,34.20
2023-01-28T18:17:42.415Z,35.17
2023-01-28T18:20:11.191Z,36.07
2023-01-28T18:22:38.586Z,35.70
2023-01-28T18:25:07.574Z,31.27
2023-01-28T18:27:34.987Z,34.77
2023-01-28T18:30:02.658Z,35.23
2023-01-28T18:32:29.989Z,31.40
2023-01-28T18:34:57.567Z,29.53
2023-01-28T18:37:24.857Z,33.73
2023-01-28T18:39:53.150Z,34.53
2023-01-28T18:42:21.199Z,35.83
2023-01-28T18:44:49.076Z,37.17
2023-01-28T18:47:17.783Z,41.75
2023-01-28T18:49:45.618Z,38.27
2023-01-28T18:52:12.969Z,36.43
2023-01-28T18:54:40.597Z,38.20
2023-01-28T18:57:09.093Z,38.47
2023-01-28T18:59:36.849Z,37.40
2023-01-28T19:02:04.223Z,34.67
2023-01-28T19:04:31.862Z,34.97
2023-01-28T19:06:59.234Z,35.55
2023-01-28T19:09:26.833Z,38.50
2023-01-28T19:11:54.250Z,33.40
2023-01-28T19:14:21.883Z,36.60
2023-01-28T19:16:49.296Z,30.13
2023-01-28T19:19:17.352Z,32.23
2023-01-28T19:21:44.689Z,36.40
2023-01-28T19:24:14.237Z,36.23
2023-01-28T19:26:44.889Z,42.80
2023-01-28T19:29:15.667Z,39.33
2023-01-28T19:31:44.702Z,42.37
2023-01-28T19:34:13.110Z,38.73
2023-01-28T19:36:40.839Z,38.73
2023-01-28T19:39:12.078Z,36.13
2023-01-28T19:41:39.866Z,31.30
2023-01-28T19:44:08.039Z,31.70
2023-01-28T19:46:40.362Z,28.40
2023-01-28T19:49:08.814Z,25.97
2023-01-28T19:51:36.550Z,28.67
2023-01-28T19:54:04.366Z,27.43
2023-01-28T19:56:36.149Z,32.10
2023-01-28T19:59:04.199Z,28.70
2023-01-28T20:01:31.913Z,30.73
2023-01-28T20:04:00.660Z,32.60
2023-01-28T20:06:31.331Z,32.00
2023-01-28T20:09:14.061Z,35.17
2023-01-28T20:11:44.021Z,30.20
2023-01-28T20:14:11.931Z,28.77
2023-01-28T20:16:39.273Z,28.13
2023-01-28T20:19:17.775Z,32.92
2023-01-28T20:21:46.606Z,32.07
2023-01-28T20:24:15.771Z,32.10
2023-01-28T20:26:44.185Z,32.30
2023-01-28T20:29:18.177Z,33.57
2023-01-28T20:31:54.670Z,33.73
2023-01-28T20:34:34.100Z,35.63
2023-01-28T20:37:03.358Z,34.23
2023-01-28T20:39:30.956Z,32.37
2023-01-28T20:41:58.518Z,29.53
2023-01-28T20:44:29.582Z,24.97
2023-01-28T20:46:56.987Z,25.40
2023-01-28T20:49:27.155Z,21.83
2023-01-28T20:51:56.140Z,24.47
2023-01-28T20:54:25.650Z,23.47
2023-01-28T20:56:54.491Z,22.63
2023-01-28T20:59:22.644Z,22.20
2023-01-28T21:01:50.882Z,23.60
2023-01-28T21:04:18.728Z,23.90
2023-01-28T21:06:46.049Z,23.05
2023-01-28T21:09:13.761Z,23.20
2023-01-28T21:11:41.064Z,23.37
2023-01-28T21:14:08.717Z,22.90
2023-01-28T21:16:41.140Z,21.03
2023-01-28T21:19:08.916Z,20.77
2023-01-28T21:21:36.394Z,20.57
2023-01-28T21:24:04.523Z,19.30
2023-01-28T21:26:31.997Z,22.27
2023-01-28T21:28:59.776Z,19.70
2023-01-28T21:31:27.556Z,19.57
2023-01-28T21:34:01.277Z,19.97
2023-01-28T21:36:33.753Z,22.37
2023-01-28T21:39:02.315Z,20.50
2023-01-28T21:41:29.792Z,18.40
2023-01-28T21:43:59.025Z,17.73
2023-01-28T21:46:33.053Z,17.58
2023-01-28T21:49:03.600Z,18.57
2023-01-28T21:51:40.562Z,17.33
2023-01-28T21:54:13.669Z,15.10
2023-01-28T21:56:46.156Z,14.82
2023-01-28T21:59:33.449Z,16.97
2023-01-28T22:02:15.696Z,15.47
2023-01-28T22:04:46.505Z,14.77
2023-01-28T22:07:20.191Z,14.87
2023-01-28T22:09:48.728Z,14.43
2023-01-28T22:12:16.610Z,15.30
2023-01-28T22:14:45.061Z,17.07
2023-01-28T22:17:12.983Z,18.23
2023-01-28T22:19:40.909Z,20.30
2023-01-28T22:22:08.210Z,17.87
2023-01-28T22:24:35.928Z,15.17
2023-01-28T22:27:03.216Z,15.00
2023-01-28T22:29:31.891Z,16.77
2023-01-28T22:31:59.291Z,14.90
2023-01-28T22:34:26.990Z,11.40
2023-01-28T22:36:54.270Z,11.43
2023-01-28T22:39:21.933Z,8.50
2023-01-28T22:41:49.355Z,7.40
2023-01-28T22:44:17.081Z,6.93
2023-01-28T22:46:44.485Z,8.73
2023-01-28T22:49:12.645Z,7.63
2023-01-28T22:51:40.078Z,8.10
2023-01-28T22:54:08.185Z,9.93
2023-01-28T22:56:35.512Z,10.17
2023-01-28T22:59:04.458Z,10.20
2023-01-28T23:01:32.292Z,9.47
2023-01-28T23:04:00.135Z,10.53
2023-01-28T23:06:28.429Z,10.93
2023-01-28T23:08:56.737Z,11.77
2023-01-28T23:11:28.740Z,11.07
2023-01-28T23:14:21.347Z,11.70
2023-01-28T23:17:08.326Z,12.27
2023-01-28T23:19:54.482Z,12.17
2023-01-28T23:22:52.458Z,12.90
2023-01-28T23:25:23.231Z,12.43
2023-01-28T23:27:50.586Z,12.10
2023-01-28T23:30:24.643Z,11.70
2023-01-28T23:32:56.167Z,11.03
2023-01-28T23:35:27.627Z,10.67
2023-01-28T23:37:56.425Z,11.13
2023-01-28T23:40:24.775Z,10.77
2023-01-28T23:42:52.651Z,10.07
2023-01-28T23:45:21.730Z,11.30
2023-01-28T23:47:49.192Z,10.10
2023-01-28T23:50:17.428Z,10.47
2023-01-28T23:52:44.955Z,11.20
2023-01-28T23:55:12.622Z,11.63
2023-01-28T23:57:39.978Z,12.43
